sensor_id;sensor_type;location;lat;lon;timestamp;P1;durP1;ratioP1;P2;durP2;ratioP2
82005;SDS011;71529;47.484;19.064;2024-01-15T00:00:59;44.30;;;24.45;;
82005;SDS011;71529;47.484;19.064;2024-01-15T00:03:29;43.67;;;23.57;;
82005;SDS011;71529;47.484;19.064;2024-01-15T00:05:58;44.35;;;26.60;;
82005;SDS011;71529;47.484;19.064;2024-01-15T00:08:27;41.33;;;22.85;;
82005;SDS011;71529;47.484;19.064;2024-01-15T00:10:59;47.93;;;25.20;;
82005;SDS011;71529;47.484;19.064;2024-01-15T00:13:28;41.15;;;24.45;;
82005;SDS011;71529;47.484;19.064;2024-01-15T00:15:57;41.72;;;23.63;;
82005;SDS011;71529;47.484;19.064;2024-01-15T00:18:27;44.37;;;24.97;;
82005;SDS011;71529;47.484;19.064;2024-01-15T00:20:56;44.60;;;24.20;;
82005;SDS011;71529;47.484;19.064;2024-01-15T00:23:25;41.58;;;24.02;;
82005;SDS011;71529;47.484;19.064;2024-01-15T00:25:54;40.00;;;24.40;;
82005;SDS011;71529;47.484;19.064;2024-01-15T00:28:26;40.03;;;24.70;;
82005;SDS011;71529;47.484;19.064;2024-01-15T00:30:55;44.67;;;24.03;;
82005;SDS011;71529;47.484;19.064;2024-01-15T00:33:24;45.60;;;25.70;;
82005;SDS011;71529;47.484;19.064;2024-01-15T00:35:52;44.00;;;24.33;;
82005;SDS011;71529;47.484;19.064;2024-01-15T00:38:22;44.27;;;23.97;;
82005;SDS011;71529;47.484;19.064;2024-01-15T00:40:50;39.65;;;22.85;;
82005;SDS011;71529;47.484;19.064;2024-01-15T00:43:19;41.47;;;23.27;;
82005;SDS011;71529;47.484;19.064;2024-01-15T00:45:51;44.10;;;25.90;;
82005;SDS011;71529;47.484;19.064;2024-01-15T00:48:20;43.53;;;24.93;;
82005;SDS011;71529;47.484;19.064;2024-01-15T00:50:48;43.57;;;23.77;;
82005;SDS011;71529;47.484;19.064;2024-01-15T00:53:20;45.37;;;27.47;;
82005;SDS011;71529;47.484;19.064;2024-01-15T00:55:49;40.53;;;25.00;;
82005;SDS011;71529;47.484;19.064;2024-01-15T00:58:18;46.55;;;25.75;;
82005;SDS011;71529;47.484;19.064;2024-01-15T01:00:48;38.13;;;22.80;;
82005;SDS011;71529;47.484;19.064;2024-01-15T01:03:19;44.33;;;25.47;;
82005;SDS011;71529;47.484;19.064;2024-01-15T01:05:48;39.40;;;24.43;;
82005;SDS011;71529;47.484;19.064;2024-01-15T01:08:18;47.07;;;27.47;;
82005;SDS011;71529;47.484;19.064;2024-01-15T01:10:47;42.20;;;24.50;;
82005;SDS011;71529;47.484;19.064;2024-01-15T01:13:17;41.73;;;25.33;;
82005;SDS011;71529;47.484;19.064;2024-01-15T01:15:46;44.95;;;24.45;;
82005;SDS011;71529;47.484;19.064;2024-01-15T01:18:17;39.10;;;22.97;;
82005;SDS011;71529;47.484;19.064;2024-01-15T01:20:47;45.08;;;27.10;;
82005;SDS011;71529;47.484;19.064;2024-01-15T01:23:16;46.97;;;25.10;;
82005;SDS011;71529;47.484;19.064;2024-01-15T01:25:46;44.27;;;24.63;;
82005;SDS011;71529;47.484;19.064;2024-01-15T01:28:15;45.10;;;24.00;;
82005;SDS011;71529;47.484;19.064;2024-01-15T01:30:44;43.13;;;25.10;;
82005;SDS011;71529;47.484;19.064;2024-01-15T01:33:13;41.17;;;24.33;;
82005;SDS011;71529;47.484;19.064;2024-01-15T01:35:45;40.73;;;24.43;;
82005;SDS011;71529;47.484;19.064;2024-01-15T01:38:13;44.37;;;24.80;;
82005;SDS011;71529;47.484;19.064;2024-01-15T01:40:42;41.53;;;24.57;;
82005;SDS011;71529;47.484;19.064;2024-01-15T01:43:11;50.80;;;26.17;;
82005;SDS011;71529;47.484;19.064;2024-01-15T01:45:40;35.97;;;23.17;;
82005;SDS011;71529;47.484;19.064;2024-01-15T01:48:10;44.63;;;25.33;;
82005;SDS011;71529;47.484;19.064;2024-01-15T01:50:39;45.03;;;25.23;;
82005;SDS011;71529;47.484;19.064;2024-01-15T01:53:11;42.03;;;23.80;;
82005;SDS011;71529;47.484;19.064;2024-01-15T01:55:40;44.53;;;24.93;;
82005;SDS011;71529;47.484;19.064;2024-01-15T01:58:10;42.90;;;24.30;;
82005;SDS011;71529;47.484;19.064;2024-01-15T02:00:39;39.33;;;23.50;;
82005;SDS011;71529;47.484;19.064;2024-01-15T02:03:08;39.23;;;23.33;;
82005;SDS011;71529;47.484;19.064;2024-01-15T02:05:37;38.25;;;22.23;;
82005;SDS011;71529;47.484;19.064;2024-01-15T02:08:10;62.40;;;31.67;;
82005;SDS011;71529;47.484;19.064;2024-01-15T02:10:39;69.73;;;34.30;;
82005;SDS011;71529;47.484;19.064;2024-01-15T02:13:08;57.20;;;29.33;;
82005;SDS011;71529;47.484;19.064;2024-01-15T02:15:37;127.17;;;65.70;;
82005;SDS011;71529;47.484;19.064;2024-01-15T02:18:06;51.53;;;26.77;;
82005;SDS011;71529;47.484;19.064;2024-01-15T02:20:35;53.93;;;30.03;;
82005;SDS011;71529;47.484;19.064;2024-01-15T02:23:10;48.17;;;28.40;;
82005;SDS011;71529;47.484;19.064;2024-01-15T02:25:41;53.20;;;29.03;;
82005;SDS011;71529;47.484;19.064;2024-01-15T02:28:11;45.93;;;26.50;;
82005;SDS011;71529;47.484;19.064;2024-01-15T02:30:41;40.67;;;24.67;;
82005;SDS011;71529;47.484;19.064;2024-01-15T02:33:11;46.00;;;27.70;;
82005;SDS011;71529;47.484;19.064;2024-01-15T02:35:41;47.97;;;28.20;;
82005;SDS011;71529;47.484;19.064;2024-01-15T02:38:14;44.75;;;25.73;;
82005;SDS011;71529;47.484;19.064;2024-01-15T02:40:44;42.13;;;24.13;;
82005;SDS011;71529;47.484;19.064;2024-01-15T02:43:13;37.80;;;23.17;;
82005;SDS011;71529;47.484;19.064;2024-01-15T02:45:45;44.30;;;26.10;;
82005;SDS011;71529;47.484;19.064;2024-01-15T02:48:14;43.37;;;24.97;;
82005;SDS011;71529;47.484;19.064;2024-01-15T02:50:43;42.37;;;25.90;;
82005;SDS011;71529;47.484;19.064;2024-01-15T02:53:15;49.03;;;27.53;;
82005;SDS011;71529;47.484;19.064;2024-01-15T02:55:43;48.47;;;26.00;;
82005;SDS011;71529;47.484;19.064;2024-01-15T02:58:13;41.00;;;23.63;;
82005;SDS011;71529;47.484;19.064;2024-01-15T03:00:43;47.27;;;26.37;;
82005;SDS011;71529;47.484;19.064;2024-01-15T03:03:12;45.40;;;24.53;;
82005;SDS011;71529;47.484;19.064;2024-01-15T03:05:41;40.30;;;25.50;;
82005;SDS011;71529;47.484;19.064;2024-01-15T03:08:09;44.30;;;24.97;;
82005;SDS011;71529;47.484;19.064;2024-01-15T03:10:41;42.47;;;24.73;;
82005;SDS011;71529;47.484;19.064;2024-01-15T03:13:13;43.13;;;25.37;;
82005;SDS011;71529;47.484;19.064;2024-01-15T03:15:42;42.40;;;23.47;;
82005;SDS011;71529;47.484;19.064;2024-01-15T03:18:11;46.30;;;25.43;;
82005;SDS011;71529;47.484;19.064;2024-01-15T03:20:40;49.53;;;29.00;;
82005;SDS011;71529;47.484;19.064;2024-01-15T03:23:10;47.00;;;25.40;;
82005;SDS011;71529;47.484;19.064;2024-01-15T03:25:41;51.87;;;27.87;;
82005;SDS011;71529;47.484;19.064;2024-01-15T03:28:10;52.07;;;28.53;;
82005;SDS011;71529;47.484;19.064;2024-01-15T03:30:38;44.57;;;26.33;;
82005;SDS011;71529;47.484;19.064;2024-01-15T03:33:08;48.33;;;28.87;;
82005;SDS011;71529;47.484;19.064;2024-01-15T03:35:36;53.67;;;29.27;;
82005;SDS011;71529;47.484;19.064;2024-01-15T03:38:05;44.97;;;26.80;;
82005;SDS011;71529;47.484;19.064;2024-01-15T03:40:34;47.53;;;26.27;;
82005;SDS011;71529;47.484;19.064;2024-01-15T03:43:06;43.83;;;26.60;;
82005;SDS011;71529;47.484;19.064;2024-01-15T03:45:35;42.58;;;25.00;;
82005;SDS011;71529;47.484;19.064;2024-01-15T03:48:05;44.17;;;26.17;;
82005;SDS011;71529;47.484;19.064;2024-01-15T03:50:34;41.67;;;24.97;;
82005;SDS011;71529;47.484;19.064;2024-01-15T03:53:03;48.97;;;25.73;;
82005;SDS011;71529;47.484;19.064;2024-01-15T03:55:32;42.90;;;25.97;;
82005;SDS011;71529;47.484;19.064;2024-01-15T03:58:01;47.17;;;27.13;;
82005;SDS011;71529;47.484;19.064;2024-01-15T04:00:33;41.53;;;25.17;;
82005;SDS011;71529;47.484;19.064;2024-01-15T04:03:02;41.27;;;24.33;;
82005;SDS011;71529;47.484;19.064;2024-01-15T04:05:31;44.13;;;26.33;;
82005;SDS011;71529;47.484;19.064;2024-01-15T04:08:00;45.37;;;26.80;;
82005;SDS011;71529;47.484;19.064;2024-01-15T04:10:29;45.27;;;25.47;;
82005;SDS011;71529;47.484;19.064;2024-01-15T04:12:58;46.50;;;26.80;;
82005;SDS011;71529;47.484;19.064;2024-01-15T04:15:29;37.93;;;23.47;;
82005;SDS011;71529;47.484;19.064;2024-01-15T04:18:01;43.30;;;27.47;;
82005;SDS011;71529;47.484;19.064;2024-01-15T04:20:31;44.33;;;26.73;;
82005;SDS011;71529;47.484;19.064;2024-01-15T04:23:00;47.97;;;26.80;;
82005;SDS011;71529;47.484;19.064;2024-01-15T04:25:29;46.13;;;26.08;;
82005;SDS011;71529;47.484;19.064;2024-01-15T04:27:58;44.58;;;25.40;;
82005;SDS011;71529;47.484;19.064;2024-01-15T04:30:27;40.27;;;24.70;;
82005;SDS011;71529;47.484;19.064;2024-01-15T04:32:56;44.17;;;25.60;;
82005;SDS011;71529;47.484;19.064;2024-01-15T04:35:27;44.47;;;25.63;;
82005;SDS011;71529;47.484;19.064;2024-01-15T04:37:56;44.20;;;25.23;;
82005;SDS011;71529;47.484;19.064;2024-01-15T04:40:26;47.67;;;24.17;;
82005;SDS011;71529;47.484;19.064;2024-01-15T04:42:54;50.90;;;25.70;;
82005;SDS011;71529;47.484;19.064;2024-01-15T04:45:23;40.33;;;24.77;;
82005;SDS011;71529;47.484;19.064;2024-01-15T04:47:54;42.67;;;25.67;;
82005;SDS011;71529;47.484;19.064;2024-01-15T04:50:24;47.87;;;26.87;;
82005;SDS011;71529;47.484;19.064;2024-01-15T04:52:55;43.57;;;26.53;;
82005;SDS011;71529;47.484;19.064;2024-01-15T04:55:25;39.17;;;24.03;;
82005;SDS011;71529;47.484;19.064;2024-01-15T04:57:54;45.20;;;24.70;;
82005;SDS011;71529;47.484;19.064;2024-01-15T05:00:23;43.60;;;25.30;;
82005;SDS011;71529;47.484;19.064;2024-01-15T05:02:52;44.43;;;25.53;;
82005;SDS011;71529;47.484;19.064;2024-01-15T05:05:21;43.23;;;25.93;;
82005;SDS011;71529;47.484;19.064;2024-01-15T05:07:50;46.20;;;27.00;;
82005;SDS011;71529;47.484;19.064;2024-01-15T05:10:21;43.90;;;25.67;;
82005;SDS011;71529;47.484;19.064;2024-01-15T05:12:50;52.80;;;29.57;;
82005;SDS011;71529;47.484;19.064;2024-01-15T05:15:19;47.93;;;26.73;;
82005;SDS011;71529;47.484;19.064;2024-01-15T05:17:48;43.67;;;25.37;;
82005;SDS011;71529;47.484;19.064;2024-01-15T05:20:17;42.30;;;24.97;;
82005;SDS011;71529;47.484;19.064;2024-01-15T05:22:46;46.03;;;25.60;;
82005;SDS011;71529;47.484;19.064;2024-01-15T05:25:15;43.50;;;24.90;;
82005;SDS011;71529;47.484;19.064;2024-01-15T05:27:47;45.70;;;26.67;;
82005;SDS011;71529;47.484;19.064;2024-01-15T05:30:16;42.67;;;26.00;;
82005;SDS011;71529;47.484;19.064;2024-01-15T05:32:45;40.27;;;23.33;;
82005;SDS011;71529;47.484;19.064;2024-01-15T05:35:14;43.70;;;24.57;;
82005;SDS011;71529;47.484;19.064;2024-01-15T05:37:43;47.70;;;26.83;;
82005;SDS011;71529;47.484;19.064;2024-01-15T05:40:14;43.77;;;25.03;;
82005;SDS011;71529;47.484;19.064;2024-01-15T05:42:43;40.53;;;23.40;;
82005;SDS011;71529;47.484;19.064;2024-01-15T05:45:15;44.57;;;25.40;;
82005;SDS011;71529;47.484;19.064;2024-01-15T05:47:44;43.10;;;24.77;;
82005;SDS011;71529;47.484;19.064;2024-01-15T05:50:13;38.17;;;22.63;;
82005;SDS011;71529;47.484;19.064;2024-01-15T05:52:44;45.67;;;25.43;;
82005;SDS011;71529;47.484;19.064;2024-01-15T05:55:13;40.47;;;23.87;;
82005;SDS011;71529;47.484;19.064;2024-01-15T05:57:43;39.87;;;24.10;;
82005;SDS011;71529;47.484;19.064;2024-01-15T06:00:16;44.53;;;26.97;;
82005;SDS011;71529;47.484;19.064;2024-01-15T06:02:45;51.00;;;26.00;;
82005;SDS011;71529;47.484;19.064;2024-01-15T06:05:14;44.80;;;25.43;;
82005;SDS011;71529;47.484;19.064;2024-01-15T06:07:43;38.30;;;22.80;;
82005;SDS011;71529;47.484;19.064;2024-01-15T06:10:12;44.87;;;25.00;;
82005;SDS011;71529;47.484;19.064;2024-01-15T06:12:42;39.37;;;23.17;;
82005;SDS011;71529;47.484;19.064;2024-01-15T06:15:12;44.37;;;25.27;;
82005;SDS011;71529;47.484;19.064;2024-01-15T06:17:44;47.67;;;26.50;;
82005;SDS011;71529;47.484;19.064;2024-01-15T06:20:13;41.67;;;24.50;;
82005;SDS011;71529;47.484;19.064;2024-01-15T06:22:42;36.73;;;22.37;;
82005;SDS011;71529;47.484;19.064;2024-01-15T06:25:11;41.67;;;24.37;;
82005;SDS011;71529;47.484;19.064;2024-01-15T06:27:41;47.13;;;24.97;;
82005;SDS011;71529;47.484;19.064;2024-01-15T06:30:10;44.13;;;25.80;;
82005;SDS011;71529;47.484;19.064;2024-01-15T06:32:40;42.67;;;25.93;;
82005;SDS011;71529;47.484;19.064;2024-01-15T06:35:11;44.20;;;25.63;;
82005;SDS011;71529;47.484;19.064;2024-01-15T06:37:40;65.70;;;33.93;;
82005;SDS011;71529;47.484;19.064;2024-01-15T06:40:09;47.07;;;26.30;;
82005;SDS011;71529;47.484;19.064;2024-01-15T06:42:39;43.07;;;25.30;;
82005;SDS011;71529;47.484;19.064;2024-01-15T06:45:08;42.43;;;26.30;;
82005;SDS011;71529;47.484;19.064;2024-01-15T06:47:38;45.60;;;26.73;;
82005;SDS011;71529;47.484;19.064;2024-01-15T06:50:08;44.10;;;26.87;;
82005;SDS011;71529;47.484;19.064;2024-01-15T06:52:40;53.60;;;28.83;;
82005;SDS011;71529;47.484;19.064;2024-01-15T06:55:09;54.07;;;28.33;;
82005;SDS011;71529;47.484;19.064;2024-01-15T06:57:38;50.60;;;29.10;;
82005;SDS011;71529;47.484;19.064;2024-01-15T07:00:09;54.90;;;28.83;;
82005;SDS011;71529;47.484;19.064;2024-01-15T07:02:38;65.53;;;31.57;;
82005;SDS011;71529;47.484;19.064;2024-01-15T07:05:07;65.50;;;31.37;;
82005;SDS011;71529;47.484;19.064;2024-01-15T07:07:39;70.23;;;32.87;;
82005;SDS011;71529;47.484;19.064;2024-01-15T07:10:08;62.97;;;33.57;;
82005;SDS011;71529;47.484;19.064;2024-01-15T07:12:38;70.63;;;32.43;;
82005;SDS011;71529;47.484;19.064;2024-01-15T07:15:07;73.33;;;33.07;;
82005;SDS011;71529;47.484;19.064;2024-01-15T07:17:36;62.23;;;31.37;;
82005;SDS011;71529;47.484;19.064;2024-01-15T07:20:08;55.53;;;30.67;;
82005;SDS011;71529;47.484;19.064;2024-01-15T07:22:41;72.80;;;33.67;;
82005;SDS011;71529;47.484;19.064;2024-01-15T07:25:11;72.23;;;33.17;;
82005;SDS011;71529;47.484;19.064;2024-01-15T07:27:39;55.63;;;31.93;;
82005;SDS011;71529;47.484;19.064;2024-01-15T07:30:10;56.17;;;29.47;;
82005;SDS011;71529;47.484;19.064;2024-01-15T07:32:40;63.47;;;30.27;;
82005;SDS011;71529;47.484;19.064;2024-01-15T07:35:09;50.17;;;29.47;;
82005;SDS011;71529;47.484;19.064;2024-01-15T07:37:41;49.27;;;31.47;;
82005;SDS011;71529;47.484;19.064;2024-01-15T07:40:11;55.07;;;30.47;;
82005;SDS011;71529;47.484;19.064;2024-01-15T07:42:40;51.17;;;29.67;;
82005;SDS011;71529;47.484;19.064;2024-01-15T07:45:09;50.97;;;29.33;;
82005;SDS011;71529;47.484;19.064;2024-01-15T07:47:39;51.07;;;28.97;;
82005;SDS011;71529;47.484;19.064;2024-01-15T07:50:08;47.83;;;29.17;;
82005;SDS011;71529;47.484;19.064;2024-01-15T07:52:38;55.87;;;29.93;;
82005;SDS011;71529;47.484;19.064;2024-01-15T07:55:10;48.87;;;28.90;;
82005;SDS011;71529;47.484;19.064;2024-01-15T07:57:39;44.87;;;26.80;;
82005;SDS011;71529;47.484;19.064;2024-01-15T08:00:09;44.43;;;27.23;;
82005;SDS011;71529;47.484;19.064;2024-01-15T08:02:38;54.75;;;28.83;;
82005;SDS011;71529;47.484;19.064;2024-01-15T08:05:07;41.93;;;25.53;;
82005;SDS011;71529;47.484;19.064;2024-01-15T08:07:36;44.20;;;25.60;;
82005;SDS011;71529;47.484;19.064;2024-01-15T08:10:08;51.97;;;29.37;;
82005;SDS011;71529;47.484;19.064;2024-01-15T08:12:39;48.65;;;27.88;;
82005;SDS011;71529;47.484;19.064;2024-01-15T08:15:08;45.67;;;26.40;;
82005;SDS011;71529;47.484;19.064;2024-01-15T08:17:36;45.10;;;25.07;;
82005;SDS011;71529;47.484;19.064;2024-01-15T08:20:05;42.30;;;25.83;;
82005;SDS011;71529;47.484;19.064;2024-01-15T08:22:35;36.63;;;23.00;;
82005;SDS011;71529;47.484;19.064;2024-01-15T08:25:05;36.43;;;20.73;;
82005;SDS011;71529;47.484;19.064;2024-01-15T08:27:38;33.30;;;19.02;;
82005;SDS011;71529;47.484;19.064;2024-01-15T08:30:09;26.73;;;15.00;;
82005;SDS011;71529;47.484;19.064;2024-01-15T08:32:39;23.95;;;15.13;;
82005;SDS011;71529;47.484;19.064;2024-01-15T08:35:09;27.40;;;15.82;;
82005;SDS011;71529;47.484;19.064;2024-01-15T08:37:38;22.50;;;12.98;;
82005;SDS011;71529;47.484;19.064;2024-01-15T08:40:10;18.70;;;11.77;;
82005;SDS011;71529;47.484;19.064;2024-01-15T08:42:39;17.73;;;10.18;;
82005;SDS011;71529;47.484;19.064;2024-01-15T08:45:08;15.80;;;8.57;;
82005;SDS011;71529;47.484;19.064;2024-01-15T08:47:37;20.92;;;9.57;;
82005;SDS011;71529;47.484;19.064;2024-01-15T08:50:06;18.23;;;10.70;;
82005;SDS011;71529;47.484;19.064;2024-01-15T08:52:36;20.25;;;9.95;;
82005;SDS011;71529;47.484;19.064;2024-01-15T08:55:05;16.45;;;9.10;;
82005;SDS011;71529;47.484;19.064;2024-01-15T08:57:37;17.23;;;9.98;;
82005;SDS011;71529;47.484;19.064;2024-01-15T09:00:06;17.65;;;10.73;;
82005;SDS011;71529;47.484;19.064;2024-01-15T09:02:36;15.90;;;9.98;;
82005;SDS011;71529;47.484;19.064;2024-01-15T09:05:07;13.65;;;8.82;;
82005;SDS011;71529;47.484;19.064;2024-01-15T09:07:38;12.68;;;7.90;;
82005;SDS011;71529;47.484;19.064;2024-01-15T09:10:12;11.35;;;7.68;;
82005;SDS011;71529;47.484;19.064;2024-01-15T09:12:45;11.30;;;8.00;;
82005;SDS011;71529;47.484;19.064;2024-01-15T09:15:15;12.85;;;8.35;;
82005;SDS011;71529;47.484;19.064;2024-01-15T09:17:46;12.75;;;7.93;;
82005;SDS011;71529;47.484;19.064;2024-01-15T09:20:19;14.60;;;8.63;;
82005;SDS011;71529;47.484;19.064;2024-01-15T09:22:48;14.52;;;7.47;;
82005;SDS011;71529;47.484;19.064;2024-01-15T09:25:17;19.17;;;7.90;;
82005;SDS011;71529;47.484;19.064;2024-01-15T09:27:49;17.48;;;9.05;;
82005;SDS011;71529;47.484;19.064;2024-01-15T09:30:19;14.10;;;8.20;;
82005;SDS011;71529;47.484;19.064;2024-01-15T09:32:47;12.98;;;7.07;;
82005;SDS011;71529;47.484;19.064;2024-01-15T09:35:17;18.40;;;8.75;;
82005;SDS011;71529;47.484;19.064;2024-01-15T09:37:46;13.32;;;8.48;;
82005;SDS011;71529;47.484;19.064;2024-01-15T09:40:14;14.13;;;8.63;;
82005;SDS011;71529;47.484;19.064;2024-01-15T09:42:43;12.10;;;7.68;;
82005;SDS011;71529;47.484;19.064;2024-01-15T09:45:15;12.07;;;8.15;;
82005;SDS011;71529;47.484;19.064;2024-01-15T09:47:45;14.13;;;8.35;;
82005;SDS011;71529;47.484;19.064;2024-01-15T09:50:13;14.55;;;8.18;;
82005;SDS011;71529;47.484;19.064;2024-01-15T09:52:43;19.23;;;8.10;;
82005;SDS011;71529;47.484;19.064;2024-01-15T09:55:13;15.20;;;7.20;;
82005;SDS011;71529;47.484;19.064;2024-01-15T09:57:43;14.85;;;9.45;;
82005;SDS011;71529;47.484;19.064;2024-01-15T10:00:17;11.95;;;8.48;;
82005;SDS011;71529;47.484;19.064;2024-01-15T10:02:47;13.30;;;8.40;;
82005;SDS011;71529;47.484;19.064;2024-01-15T10:05:16;11.52;;;8.10;;
82005;SDS011;71529;47.484;19.064;2024-01-15T10:07:45;14.02;;;8.20;;
82005;SDS011;71529;47.484;19.064;2024-01-15T10:10:16;13.25;;;8.60;;
82005;SDS011;71529;47.484;19.064;2024-01-15T10:12:45;16.92;;;8.50;;
82005;SDS011;71529;47.484;19.064;2024-01-15T10:15:13;12.77;;;7.50;;
82005;SDS011;71529;47.484;19.064;2024-01-15T10:17:46;11.20;;;7.43;;
82005;SDS011;71529;47.484;19.064;2024-01-15T10:20:16;14.10;;;8.15;;
82005;SDS011;71529;47.484;19.064;2024-01-15T10:22:47;15.38;;;7.47;;
82005;SDS011;71529;47.484;19.064;2024-01-15T10:25:16;12.23;;;7.80;;
82005;SDS011;71529;47.484;19.064;2024-01-15T10:27:57;13.03;;;8.37;;
82005;SDS011;71529;47.484;19.064;2024-01-15T10:30:31;15.13;;;7.75;;
82005;SDS011;71529;47.484;19.064;2024-01-15T10:33:01;12.05;;;8.32;;
82005;SDS011;71529;47.484;19.064;2024-01-15T10:35:32;15.25;;;7.90;;
82005;SDS011;71529;47.484;19.064;2024-01-15T10:38:02;11.18;;;7.03;;
82005;SDS011;71529;47.484;19.064;2024-01-15T10:40:31;12.60;;;8.05;;
82005;SDS011;71529;47.484;19.064;2024-01-15T10:43:01;13.60;;;8.27;;
82005;SDS011;71529;47.484;19.064;2024-01-15T10:45:32;12.55;;;8.15;;
82005;SDS011;71529;47.484;19.064;2024-01-15T10:48:02;10.95;;;7.85;;
82005;SDS011;71529;47.484;19.064;2024-01-15T10:50:32;10.48;;;7.38;;
82005;SDS011;71529;47.484;19.064;2024-01-15T10:53:02;13.85;;;8.23;;
82005;SDS011;71529;47.484;19.064;2024-01-15T10:55:33;12.75;;;7.82;;
82005;SDS011;71529;47.484;19.064;2024-01-15T10:58:03;13.25;;;8.40;;
82005;SDS011;71529;47.484;19.064;2024-01-15T11:00:36;12.90;;;6.80;;
82005;SDS011;71529;47.484;19.064;2024-01-15T11:03:06;10.73;;;6.80;;
82005;SDS011;71529;47.484;19.064;2024-01-15T11:05:36;15.60;;;7.05;;
82005;SDS011;71529;47.484;19.064;2024-01-15T11:08:07;10.52;;;6.60;;
82005;SDS011;71529;47.484;19.064;2024-01-15T11:10:40;10.10;;;5.63;;
82005;SDS011;71529;47.484;19.064;2024-01-15T11:13:15;7.32;;;5.05;;
82005;SDS011;71529;47.484;19.064;2024-01-15T11:15:58;9.73;;;6.05;;
82005;SDS011;71529;47.484;19.064;2024-01-15T11:18:28;11.68;;;6.57;;
82005;SDS011;71529;47.484;19.064;2024-01-15T11:23:53;7.93;;;5.35;;
82005;SDS011;71529;47.484;19.064;2024-01-15T11:26:33;9.85;;;5.75;;
82005;SDS011;71529;47.484;19.064;2024-01-15T11:29:05;9.32;;;5.85;;
82005;SDS011;71529;47.484;19.064;2024-01-15T11:37:29;10.60;;;6.07;;
82005;SDS011;71529;47.484;19.064;2024-01-15T11:40:37;9.25;;;5.88;;
82005;SDS011;71529;47.484;19.064;2024-01-15T11:43:08;9.45;;;5.90;;
82005;SDS011;71529;47.484;19.064;2024-01-15T11:45:39;8.43;;;5.20;;
82005;SDS011;71529;47.484;19.064;2024-01-15T11:48:14;12.63;;;6.45;;
82005;SDS011;71529;47.484;19.064;2024-01-15T11:50:43;9.23;;;5.93;;
82005;SDS011;71529;47.484;19.064;2024-01-15T11:53:18;9.50;;;6.43;;
82005;SDS011;71529;47.484;19.064;2024-01-15T11:55:57;11.43;;;5.70;;
82005;SDS011;71529;47.484;19.064;2024-01-15T11:58:27;8.57;;;5.38;;
82005;SDS011;71529;47.484;19.064;2024-01-15T12:00:57;11.50;;;5.93;;
82005;SDS011;71529;47.484;19.064;2024-01-15T12:03:34;8.93;;;5.68;;
82005;SDS011;71529;47.484;19.064;2024-01-15T12:06:15;8.75;;;5.53;;
82005;SDS011;71529;47.484;19.064;2024-01-15T12:08:49;6.53;;;5.43;;
82005;SDS011;71529;47.484;19.064;2024-01-15T12:11:18;11.70;;;5.28;;
82005;SDS011;71529;47.484;19.064;2024-01-15T12:16:55;8.98;;;5.63;;
82005;SDS011;71529;47.484;19.064;2024-01-15T12:19:52;12.57;;;5.45;;
82005;SDS011;71529;47.484;19.064;2024-01-15T12:22:45;8.70;;;5.10;;
82005;SDS011;71529;47.484;19.064;2024-01-15T12:25:18;8.98;;;5.00;;
82005;SDS011;71529;47.484;19.064;2024-01-15T12:28:27;8.30;;;5.22;;
82005;SDS011;71529;47.484;19.064;2024-01-15T12:31:16;7.82;;;5.25;;
82005;SDS011;71529;47.484;19.064;2024-01-15T12:33:45;10.52;;;6.10;;
82005;SDS011;71529;47.484;19.064;2024-01-15T12:36:17;5.45;;;4.30;;
82005;SDS011;71529;47.484;19.064;2024-01-15T12:38:49;11.73;;;4.90;;
82005;SDS011;71529;47.484;19.064;2024-01-15T12:41:18;8.57;;;4.93;;
82005;SDS011;71529;47.484;19.064;2024-01-15T12:43:47;8.25;;;4.80;;
82005;SDS011;71529;47.484;19.064;2024-01-15T12:46:16;7.75;;;4.75;;
82005;SDS011;71529;47.484;19.064;2024-01-15T12:48:45;10.07;;;5.53;;
82005;SDS011;71529;47.484;19.064;2024-01-15T12:51:17;9.23;;;4.95;;
82005;SDS011;71529;47.484;19.064;2024-01-15T12:53:46;7.70;;;4.57;;
82005;SDS011;71529;47.484;19.064;2024-01-15T12:56:15;12.45;;;5.00;;
82005;SDS011;71529;47.484;19.064;2024-01-15T12:58:43;6.25;;;4.47;;
82005;SDS011;71529;47.484;19.064;2024-01-15T13:01:13;7.97;;;4.65;;
82005;SDS011;71529;47.484;19.064;2024-01-15T13:03:42;7.18;;;4.45;;
82005;SDS011;71529;47.484;19.064;2024-01-15T13:06:11;11.35;;;5.25;;
82005;SDS011;71529;47.484;19.064;2024-01-15T13:08:42;7.57;;;5.30;;
82005;SDS011;71529;47.484;19.064;2024-01-15T13:14:54;7.32;;;4.78;;
82005;SDS011;71529;47.484;19.064;2024-01-15T13:18:06;8.27;;;5.18;;
82005;SDS011;71529;47.484;19.064;2024-01-15T13:26:58;8.27;;;4.57;;
82005;SDS011;71529;47.484;19.064;2024-01-15T13:29:47;6.97;;;4.38;;
82005;SDS011;71529;47.484;19.064;2024-01-15T13:32:17;11.00;;;4.28;;
82005;SDS011;71529;47.484;19.064;2024-01-15T13:34:52;8.07;;;4.88;;
82005;SDS011;71529;47.484;19.064;2024-01-15T13:37:21;7.90;;;4.72;;
82005;SDS011;71529;47.484;19.064;2024-01-15T13:39:53;7.10;;;4.85;;
82005;SDS011;71529;47.484;19.064;2024-01-15T13:42:22;13.25;;;3.92;;
82005;SDS011;71529;47.484;19.064;2024-01-15T13:44:53;9.18;;;4.60;;
82005;SDS011;71529;47.484;19.064;2024-01-15T13:47:22;6.10;;;4.78;;
82005;SDS011;71529;47.484;19.064;2024-01-15T13:49:51;7.65;;;4.53;;
82005;SDS011;71529;47.484;19.064;2024-01-15T13:52:20;6.53;;;4.10;;
82005;SDS011;71529;47.484;19.064;2024-01-15T13:54:50;8.57;;;4.78;;
82005;SDS011;71529;47.484;19.064;2024-01-15T13:57:22;10.25;;;4.97;;
82005;SDS011;71529;47.484;19.064;2024-01-15T13:59:51;5.70;;;4.68;;
82005;SDS011;71529;47.484;19.064;2024-01-15T14:02:20;5.90;;;4.43;;
82005;SDS011;71529;47.484;19.064;2024-01-15T14:04:50;12.25;;;5.07;;
82005;SDS011;71529;47.484;19.064;2024-01-15T14:07:19;12.23;;;4.80;;
82005;SDS011;71529;47.484;19.064;2024-01-15T14:09:48;4.95;;;4.00;;
82005;SDS011;71529;47.484;19.064;2024-01-15T14:12:19;9.13;;;4.72;;
82005;SDS011;71529;47.484;19.064;2024-01-15T14:14:48;7.43;;;5.05;;
82005;SDS011;71529;47.484;19.064;2024-01-15T14:17:18;12.15;;;5.28;;
82005;SDS011;71529;47.484;19.064;2024-01-15T14:19:47;7.80;;;4.40;;
82005;SDS011;71529;47.484;19.064;2024-01-15T14:22:16;8.05;;;5.10;;
82005;SDS011;71529;47.484;19.064;2024-01-15T14:24:45;7.45;;;4.40;;
82005;SDS011;71529;47.484;19.064;2024-01-15T14:27:14;6.63;;;3.80;;
82005;SDS011;71529;47.484;19.064;2024-01-15T14:29:46;8.93;;;4.70;;
82005;SDS011;71529;47.484;19.064;2024-01-15T14:32:15;6.07;;;4.18;;
82005;SDS011;71529;47.484;19.064;2024-01-15T14:34:45;7.55;;;4.93;;
82005;SDS011;71529;47.484;19.064;2024-01-15T14:37:14;4.80;;;3.75;;
82005;SDS011;71529;47.484;19.064;2024-01-15T14:39:43;10.27;;;4.30;;
82005;SDS011;71529;47.484;19.064;2024-01-15T14:42:13;8.48;;;5.07;;
82005;SDS011;71529;47.484;19.064;2024-01-15T14:44:41;7.65;;;4.95;;
82005;SDS011;71529;47.484;19.064;2024-01-15T14:47:13;6.07;;;3.88;;
82005;SDS011;71529;47.484;19.064;2024-01-15T14:49:42;4.72;;;3.90;;
82005;SDS011;71529;47.484;19.064;2024-01-15T14:52:12;10.15;;;6.25;;
82005;SDS011;71529;47.484;19.064;2024-01-15T14:54:41;11.23;;;5.88;;
82005;SDS011;71529;47.484;19.064;2024-01-15T14:57:10;8.45;;;5.25;;